createdAt,value
2019-03-25T00:00:43.454Z,4.63
2019-03-25T00:03:12.918Z,5.70
2019-03-25T00:05:42.407Z,4.30
2019-03-25T00:08:11.903Z,4.60
2019-03-25T00:10:41.371Z,5.37
2019-03-25T00:13:10.835Z,5.63
2019-03-25T00:15:40.468Z,5.95
2019-03-25T00:18:09.933Z,6.60
2019-03-25T00:20:59.012Z,7.27
2019-03-25T00:23:47.812Z,6.60
2019-03-25T00:26:29.439Z,6.33
2019-03-25T00:29:18.235Z,5.73
2019-03-25T00:32:07.052Z,4.40
2019-03-25T00:34:55.858Z,6.87
2019-03-25T00:37:44.673Z,5.27
2019-03-25T00:40:33.468Z,4.43
2019-03-25T00:43:22.283Z,5.80
2019-03-25T00:46:11.082Z,6.73
2019-03-25T00:48:59.898Z,7.90
2019-03-25T00:51:48.697Z,5.70
2019-03-25T00:54:37.508Z,6.00
2019-03-25T00:57:45.329Z,7.03
2019-03-25T01:00:34.143Z,5.40
2019-03-25T01:03:22.958Z,3.97
2019-03-25T01:06:11.753Z,6.60
2019-03-25T01:09:00.566Z,4.00
2019-03-25T01:11:49.580Z,8.20
2019-03-25T01:14:58.991Z,5.90
2019-03-25T01:17:47.783Z,4.73
2019-03-25T01:20:36.603Z,8.33
2019-03-25T01:23:25.394Z,5.90
2019-03-25T01:26:14.278Z,8.50
2019-03-25T01:28:55.977Z,7.20
2019-03-25T01:31:44.801Z,4.17
2019-03-25T01:34:33.614Z,17.73
2019-03-25T01:37:22.406Z,3.93
2019-03-25T01:43:26.403Z,5.93
2019-03-25T01:46:15.217Z,6.43
2019-03-25T01:49:04.084Z,6.20
2019-03-25T01:51:52.902Z,6.62
2019-03-25T01:54:41.722Z,6.17
2019-03-25T01:57:30.511Z,7.77
2019-03-25T02:00:19.390Z,4.87
2019-03-25T02:03:08.225Z,7.00
2019-03-25T02:05:57.023Z,5.65
2019-03-25T02:08:45.848Z,7.70
2019-03-25T02:11:34.644Z,6.60
2019-03-25T02:14:23.456Z,7.70
2019-03-25T02:17:12.254Z,6.60
2019-03-25T02:20:01.076Z,5.70
2019-03-25T02:22:50.049Z,7.00
2019-03-25T02:25:40.419Z,8.00
2019-03-25T02:31:16.949Z,5.67
2019-03-25T02:34:05.720Z,10.37
2019-03-25T02:36:54.544Z,5.70
2019-03-25T02:39:43.332Z,5.60
2019-03-25T02:42:32.148Z,7.57
2019-03-25T02:45:20.953Z,6.30
2019-03-25T02:48:09.761Z,8.00
2019-03-25T02:50:58.569Z,6.10
2019-03-25T02:53:47.376Z,5.97
2019-03-25T02:56:36.193Z,5.60
2019-03-25T02:59:24.986Z,5.07
2019-03-25T03:02:13.818Z,6.10
2019-03-25T03:05:02.617Z,6.50
2019-03-25T03:07:51.437Z,5.97
2019-03-25T03:10:40.310Z,8.13
2019-03-25T03:13:29.125Z,7.10
2019-03-25T03:16:17.917Z,9.87
2019-03-25T03:19:06.734Z,7.27
2019-03-25T03:21:55.531Z,9.03
2019-03-25T03:24:44.344Z,10.70
2019-03-25T03:27:33.166Z,9.50
2019-03-25T03:30:13.118Z,8.87
2019-03-25T03:33:01.907Z,7.70
2019-03-25T03:35:50.713Z,6.97
2019-03-25T03:38:39.530Z,9.30
2019-03-25T03:41:28.326Z,8.37
2019-03-25T03:44:17.145Z,11.97
2019-03-25T03:47:25.056Z,8.90
2019-03-25T03:50:34.752Z,8.77
2019-03-25T03:53:23.732Z,12.27
2019-03-25T03:56:14.362Z,10.40
2019-03-25T03:59:24.022Z,9.97
2019-03-25T04:02:13.233Z,9.17
2019-03-25T04:05:02.015Z,8.40
2019-03-25T04:07:50.887Z,9.20
2019-03-25T04:10:39.690Z,7.20
2019-03-25T04:13:28.506Z,11.63
2019-03-25T04:16:17.303Z,12.07
2019-03-25T04:19:25.164Z,10.00
2019-03-25T04:22:13.946Z,11.87
2019-03-25T04:25:02.765Z,13.00
2019-03-25T04:27:51.556Z,11.90
2019-03-25T04:30:31.363Z,10.20
2019-03-25T04:33:20.181Z,9.37
2019-03-25T04:36:08.976Z,10.97
2019-03-25T04:38:57.787Z,12.17
2019-03-25T04:41:46.579Z,12.80
2019-03-25T04:44:35.399Z,15.90
2019-03-25T04:47:24.197Z,12.73
2019-03-25T04:50:13.010Z,14.90
2019-03-25T04:53:01.801Z,12.00
2019-03-25T04:55:50.634Z,13.30
2019-03-25T04:58:39.442Z,14.60
2019-03-25T05:01:47.277Z,15.03
2019-03-25T05:04:36.090Z,13.27
2019-03-25T05:07:24.889Z,14.10
2019-03-25T05:10:13.704Z,14.00
2019-03-25T05:13:02.501Z,17.57
2019-03-25T05:15:51.323Z,14.77
2019-03-25T05:18:40.119Z,15.07
2019-03-25T05:21:28.931Z,13.70
2019-03-25T05:24:17.739Z,19.47
2019-03-25T05:27:06.557Z,16.20
2019-03-25T05:29:55.357Z,15.57
2019-03-25T05:32:37.013Z,17.20
2019-03-25T05:35:25.834Z,18.77
2019-03-25T05:38:14.621Z,18.07
2019-03-25T05:41:03.495Z,16.65
2019-03-25T05:43:52.330Z,23.80
2019-03-25T05:46:41.121Z,18.27
2019-03-25T05:49:29.937Z,22.60
2019-03-25T05:52:18.738Z,23.00
2019-03-25T05:55:26.896Z,22.17
2019-03-25T05:58:15.694Z,23.37
2019-03-25T06:01:04.587Z,18.80
2019-03-25T06:03:53.513Z,20.13
2019-03-25T06:06:42.319Z,18.50
2019-03-25T06:09:31.140Z,16.37
2019-03-25T06:12:19.934Z,14.47
2019-03-25T06:15:08.927Z,18.13
2019-03-25T06:17:57.730Z,15.10
2019-03-25T06:20:46.561Z,13.90
2019-03-25T06:23:35.380Z,12.17
2019-03-25T06:26:24.174Z,13.67
2019-03-25T06:29:12.997Z,10.90
2019-03-25T06:31:54.277Z,8.97
2019-03-25T06:34:43.109Z,7.40
2019-03-25T06:37:31.925Z,6.87
2019-03-25T06:40:20.809Z,7.20
2019-03-25T06:43:09.604Z,5.60
2019-03-25T06:45:58.415Z,6.63
2019-03-25T06:48:47.212Z,4.53
2019-03-25T06:51:36.041Z,5.30
2019-03-25T06:54:24.820Z,9.57
2019-03-25T06:57:24.959Z,3.13
2019-03-25T07:00:25.051Z,2.10
2019-03-25T07:03:13.869Z,2.13
2019-03-25T07:09:10.414Z,2.97
2019-03-25T07:11:59.205Z,3.30
2019-03-25T07:15:07.108Z,5.00
2019-03-25T07:18:14.925Z,4.50
2019-03-25T07:21:03.742Z,3.20
2019-03-25T07:24:11.559Z,4.20
2019-03-25T07:27:00.367Z,2.47
2019-03-25T07:29:41.991Z,5.43
2019-03-25T07:32:30.786Z,5.40
2019-03-25T07:35:19.590Z,2.60
2019-03-25T07:38:08.393Z,5.30
2019-03-25T07:40:57.207Z,3.37
2019-03-25T07:43:46.000Z,5.73
2019-03-25T07:46:34.814Z,3.50
2019-03-25T07:49:23.615Z,3.40
2019-03-25T07:52:12.431Z,4.87
2019-03-25T07:55:01.247Z,4.70
2019-03-25T08:00:57.824Z,3.22
2019-03-25T08:03:46.618Z,4.13
2019-03-25T08:06:35.414Z,5.10
2019-03-25T08:09:24.222Z,2.40
2019-03-25T08:12:13.028Z,5.30
2019-03-25T08:15:01.832Z,4.87
2019-03-25T08:17:50.626Z,5.27
2019-03-25T08:20:39.495Z,5.63
2019-03-25T08:23:28.310Z,4.60
2019-03-25T08:26:17.098Z,5.90
2019-03-25T08:29:05.921Z,7.00
2019-03-25T08:31:47.454Z,3.37
2019-03-25T08:34:36.271Z,5.03
2019-03-25T08:37:25.072Z,4.03
2019-03-25T08:40:32.910Z,4.00
2019-03-25T08:43:21.709Z,4.37
2019-03-25T08:46:10.523Z,5.83
2019-03-25T08:48:59.317Z,4.17
2019-03-25T08:51:48.130Z,4.70
2019-03-25T08:54:38.013Z,5.53
2019-03-25T08:57:27.456Z,3.97
2019-03-25T09:00:35.515Z,4.93
2019-03-25T09:03:24.328Z,4.00
2019-03-25T09:06:13.127Z,3.63
2019-03-25T09:09:01.936Z,3.67
2019-03-25T09:11:51.791Z,3.63
2019-03-25T09:14:41.265Z,3.20
2019-03-25T09:17:30.077Z,4.70
2019-03-25T09:20:18.955Z,6.10
2019-03-25T09:23:07.752Z,5.33
2019-03-25T09:25:56.577Z,4.20
2019-03-25T09:28:45.695Z,4.77
2019-03-25T09:31:36.351Z,5.63
2019-03-25T09:34:18.024Z,7.47
2019-03-25T09:37:06.841Z,3.60
2019-03-25T09:39:55.653Z,3.60
2019-03-25T09:42:44.461Z,7.50
2019-03-25T09:45:33.349Z,6.07
2019-03-25T09:48:22.165Z,4.90
2019-03-25T09:51:11.023Z,6.00
2019-03-25T09:53:59.906Z,6.37
2019-03-25T09:56:48.700Z,5.35
2019-03-25T09:59:37.580Z,4.50
2019-03-25T10:02:26.375Z,5.03
2019-03-25T10:08:09.426Z,6.20
2019-03-25T10:10:58.240Z,4.40
2019-03-25T10:13:47.032Z,4.03
2019-03-25T10:16:35.853Z,2.73
2019-03-25T10:19:43.673Z,3.10
2019-03-25T10:22:51.577Z,4.43
2019-03-25T10:25:40.376Z,2.80
2019-03-25T10:28:20.115Z,3.07
2019-03-25T10:34:16.670Z,2.00
2019-03-25T10:37:05.483Z,1.57
2019-03-25T10:39:54.272Z,1.80
2019-03-25T10:42:43.090Z,2.50
2019-03-25T10:45:31.892Z,4.53
2019-03-25T10:48:20.699Z,3.70
2019-03-25T10:51:09.495Z,3.00
2019-03-25T10:53:58.303Z,2.30
2019-03-25T10:57:06.167Z,3.60
2019-03-25T10:59:55.066Z,1.63
2019-03-25T11:02:43.927Z,2.47
2019-03-25T11:05:32.796Z,3.00
2019-03-25T11:08:21.651Z,4.87
2019-03-25T11:14:05.530Z,4.60
2019-03-25T11:16:47.399Z,4.00
2019-03-25T11:19:36.225Z,3.60
2019-03-25T11:22:25.100Z,3.00
2019-03-25T11:25:33.803Z,2.50
2019-03-25T11:28:41.856Z,3.10
2019-03-25T11:31:30.692Z,4.77
2019-03-25T11:34:19.546Z,3.83
2019-03-25T11:37:08.446Z,2.67
2019-03-25T11:39:57.297Z,1.53
2019-03-25T11:42:46.141Z,2.77
2019-03-25T11:45:35.034Z,3.10
2019-03-25T11:48:23.842Z,2.63
2019-03-25T11:51:12.641Z,2.77
2019-03-25T11:54:01.455Z,2.03
2019-03-25T11:56:50.245Z,2.93
2019-03-25T11:59:39.062Z,1.87
2019-03-25T12:02:27.858Z,1.80
2019-03-25T12:05:16.739Z,1.83
2019-03-25T12:08:05.625Z,1.63
2019-03-25T12:10:54.416Z,2.10
2019-03-25T12:13:43.301Z,1.37
2019-03-25T12:16:32.120Z,3.37
2019-03-25T12:19:14.159Z,2.53
2019-03-25T12:22:02.987Z,2.15
2019-03-25T12:24:51.785Z,2.80
2019-03-25T12:27:40.707Z,2.60
2019-03-25T12:30:29.559Z,2.50
2019-03-25T12:33:18.371Z,2.60
2019-03-25T12:39:16.566Z,4.73
2019-03-25T12:42:05.400Z,5.00
2019-03-25T12:44:54.223Z,4.43
2019-03-25T12:50:50.826Z,3.30
2019-03-25T12:53:39.621Z,6.67
2019-03-25T12:56:28.441Z,5.03
2019-03-25T12:59:41.119Z,2.40
2019-03-25T13:02:26.792Z,4.13
2019-03-25T13:05:15.660Z,2.47
2019-03-25T13:08:04.717Z,2.30
2019-03-25T13:10:53.512Z,2.63
2019-03-25T13:13:42.324Z,3.33
2019-03-25T13:16:31.130Z,4.03
2019-03-25T13:19:12.660Z,3.10
2019-03-25T13:22:01.461Z,4.40
2019-03-25T13:24:50.281Z,3.90
2019-03-25T13:27:39.077Z,4.87
2019-03-25T13:30:27.891Z,2.97
2019-03-25T13:33:16.690Z,5.57
2019-03-25T13:36:05.690Z,7.53
2019-03-25T13:38:54.489Z,8.77
2019-03-25T13:41:43.298Z,9.60
2019-03-25T13:44:32.091Z,19.00
2019-03-25T13:47:40.001Z,7.37
2019-03-25T13:50:28.807Z,3.70
2019-03-25T13:53:17.627Z,5.27
2019-03-25T13:56:06.432Z,3.80
2019-03-25T13:58:55.241Z,3.60
2019-03-25T14:01:44.037Z,3.73
2019-03-25T14:04:32.853Z,13.37
2019-03-25T14:07:21.677Z,4.60
2019-03-25T14:10:10.715Z,4.30
2019-03-25T14:12:59.535Z,3.87
2019-03-25T14:15:48.332Z,5.83
2019-03-25T14:21:24.193Z,4.03
2019-03-25T14:24:13.026Z,5.37
2019-03-25T14:27:01.838Z,3.77
2019-03-25T14:29:50.646Z,3.00
2019-03-25T14:32:39.470Z,4.60
2019-03-25T14:35:28.262Z,3.83
2019-03-25T14:38:17.073Z,5.03
2019-03-25T14:41:06.191Z,3.60
2019-03-25T14:43:55.000Z,6.70
2019-03-25T14:46:43.841Z,5.47
2019-03-25T14:49:32.620Z,5.70
2019-03-25T14:52:21.444Z,4.57
2019-03-25T14:55:10.307Z,5.33
2019-03-25T14:57:59.250Z,5.00
2019-03-25T15:00:48.093Z,2.73
2019-03-25T15:03:36.915Z,4.10
2019-03-25T15:06:25.736Z,2.70
2019-03-25T15:09:14.519Z,5.70
2019-03-25T15:12:03.340Z,3.20
2019-03-25T15:14:52.127Z,2.70
2019-03-25T15:17:40.942Z,3.50
2019-03-25T15:20:23.054Z,3.00
2019-03-25T15:23:11.864Z,6.97
2019-03-25T15:26:00.715Z,7.10
2019-03-25T15:28:49.620Z,9.07
2019-03-25T15:31:38.455Z,7.40
2019-03-25T15:34:27.287Z,11.90
2019-03-25T15:37:16.141Z,5.70
2019-03-25T15:40:25.901Z,5.20
2019-03-25T15:43:16.425Z,3.30
2019-03-25T15:46:05.342Z,6.60
2019-03-25T15:48:54.169Z,2.70
2019-03-25T15:51:43.994Z,6.83
2019-03-25T15:54:33.515Z,13.60
2019-03-25T15:57:22.317Z,3.10
2019-03-25T16:00:32.044Z,3.07
2019-03-25T16:03:20.864Z,7.67
2019-03-25T16:06:09.964Z,6.00
2019-03-25T16:11:52.992Z,7.80
2019-03-25T16:14:41.813Z,8.90
2019-03-25T16:17:21.627Z,7.30
2019-03-25T16:20:30.154Z,6.27
2019-03-25T16:23:18.980Z,3.40
2019-03-25T16:26:08.158Z,3.03
2019-03-25T16:28:56.967Z,4.70
2019-03-25T16:31:45.771Z,5.57
2019-03-25T16:34:34.587Z,16.60
2019-03-25T16:37:23.398Z,7.80
2019-03-25T16:40:12.284Z,7.60
2019-03-25T16:43:01.086Z,7.70
2019-03-25T16:45:50.167Z,7.80
2019-03-25T16:48:38.978Z,8.13
2019-03-25T16:51:28.054Z,8.10
2019-03-25T16:54:16.841Z,7.53
2019-03-25T16:57:05.676Z,6.60
2019-03-25T16:59:54.493Z,6.13
2019-03-25T17:02:43.545Z,4.83
2019-03-25T17:05:32.348Z,6.67
2019-03-25T17:08:21.138Z,4.23
2019-03-25T17:14:10.031Z,7.40
2019-03-25T17:16:58.831Z,7.63
2019-03-25T17:19:47.647Z,8.50
2019-03-25T17:22:36.442Z,7.85
2019-03-25T17:25:25.276Z,6.40
2019-03-25T17:28:14.427Z,6.10
2019-03-25T17:31:03.302Z,3.00
2019-03-25T17:33:52.186Z,3.00
2019-03-25T17:36:40.983Z,3.00
2019-03-25T17:39:29.820Z,2.30
2019-03-25T17:42:18.629Z,3.23
2019-03-25T17:45:28.339Z,3.50
2019-03-25T17:48:17.125Z,3.53
2019-03-25T17:51:06.020Z,3.97
2019-03-25T17:54:13.833Z,4.70
2019-03-25T17:57:02.655Z,5.57
2019-03-25T17:59:51.440Z,4.20
2019-03-25T18:02:40.260Z,3.23
2019-03-25T18:05:29.053Z,4.10
2019-03-25T18:08:17.865Z,4.47
2019-03-25T18:11:06.698Z,2.83
2019-03-25T18:16:42.405Z,3.83
2019-03-25T18:22:40.058Z,3.90
2019-03-25T18:25:29.509Z,4.83
2019-03-25T18:28:18.401Z,4.70
2019-03-25T18:34:15.077Z,3.33
2019-03-25T18:37:03.863Z,2.43
2019-03-25T18:39:52.673Z,2.60
2019-03-25T18:42:41.473Z,3.50
2019-03-25T18:45:30.299Z,3.93
2019-03-25T18:48:19.092Z,5.60
2019-03-25T18:51:07.913Z,5.57
2019-03-25T18:53:56.776Z,3.67
2019-03-25T18:59:40.140Z,5.20
2019-03-25T19:02:29.022Z,3.30
2019-03-25T19:05:17.828Z,2.90
2019-03-25T19:08:06.714Z,3.03
2019-03-25T19:10:55.538Z,3.30
2019-03-25T19:13:44.358Z,3.80
2019-03-25T19:16:25.802Z,4.17
2019-03-25T19:19:14.573Z,4.10
2019-03-25T19:22:05.328Z,3.90
2019-03-25T19:24:53.960Z,5.70
2019-03-25T19:27:42.746Z,3.60
2019-03-25T19:30:31.581Z,4.17
2019-03-25T19:33:20.364Z,2.60
2019-03-25T19:36:09.173Z,2.57
2019-03-25T19:38:57.986Z,3.10
2019-03-25T19:41:46.869Z,3.90
2019-03-25T19:44:35.713Z,7.03
2019-03-25T19:47:24.502Z,3.67
2019-03-25T19:53:28.498Z,6.07
2019-03-25T19:56:17.285Z,8.50
2019-03-25T19:59:06.122Z,5.00
2019-03-25T20:01:54.905Z,3.77
2019-03-25T20:04:43.770Z,5.07
2019-03-25T20:07:32.555Z,6.33
2019-03-25T20:10:40.681Z,5.10
2019-03-25T20:13:29.483Z,5.07
2019-03-25T20:16:18.291Z,5.10
2019-03-25T20:19:00.216Z,5.93
2019-03-25T20:21:49.056Z,5.43
2019-03-25T20:24:37.832Z,6.97
2019-03-25T20:27:26.734Z,7.10
2019-03-25T20:33:44.117Z,4.80
2019-03-25T20:36:32.932Z,5.27
2019-03-25T20:39:21.735Z,3.83
2019-03-25T20:42:10.559Z,6.10
2019-03-25T20:44:59.373Z,5.53
2019-03-25T20:47:48.168Z,5.35
2019-03-25T20:50:37.211Z,6.33
2019-03-25T20:53:26.048Z,5.70
2019-03-25T20:56:14.915Z,6.50
2019-03-25T20:59:03.868Z,6.17
2019-03-25T21:01:43.616Z,10.37
2019-03-25T21:04:32.461Z,11.90
2019-03-25T21:07:21.286Z,4.85
2019-03-25T21:10:10.305Z,8.03
2019-03-25T21:12:59.124Z,4.50
2019-03-25T21:15:47.959Z,6.03
2019-03-25T21:18:36.757Z,6.93
2019-03-25T21:21:25.564Z,7.20
2019-03-25T21:24:14.372Z,5.80
2019-03-25T21:27:03.221Z,5.20
2019-03-25T21:29:52.046Z,5.47
2019-03-25T21:32:40.873Z,6.77
2019-03-25T21:35:29.663Z,6.57
2019-03-25T21:38:18.499Z,6.23
2019-03-25T21:41:07.310Z,10.05
2019-03-25T21:43:56.142Z,4.90
2019-03-25T21:46:45.018Z,7.87
2019-03-25T21:49:33.851Z,6.73
2019-03-25T21:52:22.994Z,7.63
2019-03-25T21:55:11.838Z,6.27
2019-03-25T21:58:19.768Z,6.93
2019-03-25T22:01:08.646Z,6.90
2019-03-25T22:03:57.433Z,4.13
2019-03-25T22:06:46.228Z,6.13
2019-03-25T22:09:35.041Z,4.47
2019-03-25T22:12:23.837Z,4.60
2019-03-25T22:15:32.291Z,8.13
2019-03-25T22:18:21.092Z,5.80
2019-03-25T22:21:09.910Z,5.87
2019-03-25T22:23:59.080Z,5.80
2019-03-25T22:29:42.593Z,8.43
2019-03-25T22:32:31.404Z,4.17
2019-03-25T22:35:20.223Z,6.17
2019-03-25T22:38:09.019Z,5.83
2019-03-25T22:40:57.836Z,5.50
2019-03-25T22:44:05.662Z,6.40
2019-03-25T22:47:13.500Z,9.20
2019-03-25T22:50:02.294Z,4.53
2019-03-25T22:52:51.171Z,8.20
2019-03-25T22:55:39.998Z,7.53
2019-03-25T22:58:28.800Z,6.53
2019-03-25T23:01:10.955Z,4.80
2019-03-25T23:03:59.751Z,6.57
2019-03-25T23:06:48.572Z,5.00
2019-03-25T23:09:37.369Z,7.30
2019-03-25T23:12:26.191Z,7.53
2019-03-25T23:15:14.985Z,5.57
2019-03-25T23:18:04.165Z,9.73
2019-03-25T23:20:52.992Z,8.13
2019-03-25T23:23:41.877Z,6.80
2019-03-25T23:26:30.670Z,5.95
2019-03-25T23:29:19.492Z,7.97
2019-03-25T23:32:08.317Z,5.40
2019-03-25T23:34:57.095Z,6.10
2019-03-25T23:37:45.885Z,6.30
2019-03-25T23:40:34.709Z,6.30
2019-03-25T23:43:23.514Z,5.50
2019-03-25T23:46:12.345Z,8.93
2019-03-25T23:52:08.898Z,9.17
2019-03-25T23:54:57.696Z,5.50
2019-03-25T23:57:39.255Z,6.13
